KISN

Sloulin Field International Airport

Williston, North Dakota, USA
KISN 190602Z 1906/2006 33007KT P6SM OVC200 WS010/33040KT FM190900 31007KT P6SM SCT200 FM191900 31017G26KT P6SM SKC
Issued Valid From Valid To
Oct-19 @ 06:02 UTC
(3 hours ago)
Oct-19 @ 06:00 UTC
(3 hours ago)
Oct-20 @ 06:00 UTC
(in 21 hours)
Expired Click to View Oct-19 @ 06:00 to Oct-19 @ 09:00
KISN 190602Z 1906/2006 33007KT P6SM OVC200 WS010/33040KT
Wind Visibility Clouds
330° at 7 knots
 Wind shear 1,000' AGL from 330° at 40 knots
Greater than 6 miles
  • Overcast at 20,000' AGL
From Oct-19 @ 09:00 to Oct-19 @ 19:00
FM190900 31007KT P6SM SCT200
Wind Visibility Clouds
310° at 7 knots Greater than 6 miles
  • Scattered at 20,000' AGL
From Oct-19 @ 19:00 to Oct-20 @ 06:00
FM191900 31017G26KT P6SM SKC
Wind Visibility Clouds
310° at 17 knots
 Gusting to 26 knots
Greater than 6 miles
  • Clear skies
KISN 190602Z 1906/2006 33007KT P6SM OVC200 WS010/33040KT FM190900 31007KT P6SM SCT200 FM191900 31017G26KT P6SM SKC
Issued Oct-19 @ 06:02 UTC
(3 hours ago)
Valid From Oct-19 @ 06:00 UTC
(3 hours ago)
Valid To Oct-20 @ 06:00 UTC
(in 21 hours)
Oct-19 @ 06:00 - Oct-19 @ 09:00
Wind Visibility
330° at 7 knots Greater than 6 miles
Clouds
  • Overcast at 20,000' AGL
From Oct-19 @ 09:00 - Oct-19 @ 19:00
Wind Visibility
310° at 7 knots Greater than 6 miles
Clouds
  • Scattered at 20,000' AGL
From Oct-19 @ 19:00 - Oct-20 @ 06:00
Wind Visibility
310° at 17 knots
 Gusting to 26 knots
Greater than 6 miles
Clouds
  • Clear skies